createdAt,value
2023-03-25T00:00:36.190Z,95242.33
2023-03-25T00:03:42.648Z,95234.95
2023-03-25T00:07:14.289Z,95227.30
2023-03-25T00:10:32.495Z,95224.02
2023-03-25T00:13:28.983Z,95220.42
2023-03-25T00:16:22.871Z,95219.48
2023-03-25T00:19:18.910Z,95216.73
2023-03-25T00:22:13.004Z,95213.48
2023-03-25T00:25:06.751Z,95206.20
2023-03-25T00:28:02.040Z,95206.62
2023-03-25T00:31:03.852Z,95202.91
2023-03-25T00:34:16.235Z,95193.71
2023-03-25T00:37:17.768Z,95188.11
2023-03-25T00:40:35.232Z,95183.23
2023-03-25T00:43:27.664Z,95176.67
2023-03-25T00:46:23.062Z,95174.73
2023-03-25T00:49:14.996Z,95174.31
2023-03-25T00:52:07.495Z,95168.20
2023-03-25T00:55:01.567Z,95167.20
2023-03-25T00:57:58.012Z,95162.22
2023-03-25T01:00:50.654Z,95154.79
2023-03-25T01:03:44.585Z,95153.42
2023-03-25T01:06:36.812Z,95153.09
2023-03-25T01:09:30.185Z,95148.79
2023-03-25T01:12:22.291Z,95147.64
2023-03-25T01:15:15.684Z,95143.61
2023-03-25T01:18:07.112Z,95138.31
2023-03-25T01:20:59.496Z,95135.76
2023-03-25T01:23:51.467Z,95132.16
2023-03-25T01:26:45.927Z,95128.86
2023-03-25T01:29:38.602Z,95126.26
2023-03-25T01:32:31.688Z,95122.04
2023-03-25T01:35:24.089Z,95115.64
2023-03-25T01:38:17.854Z,95110.20
2023-03-25T01:41:11.775Z,95104.23
2023-03-25T01:44:30.122Z,95102.52
2023-03-25T01:47:22.887Z,95103.23
2023-03-25T01:50:17.555Z,95103.34
2023-03-25T01:53:11.681Z,95102.23
2023-03-25T01:56:06.970Z,95102.95
2023-03-25T01:59:04.221Z,95103.13
2023-03-25T02:01:58.435Z,95105.05
2023-03-25T02:05:29.321Z,95106.67
2023-03-25T02:08:23.656Z,95102.64
2023-03-25T02:11:15.503Z,95106.00
2023-03-25T02:14:11.733Z,95105.04
2023-03-25T02:17:24.417Z,95103.60
2023-03-25T02:20:40.893Z,95105.40
2023-03-25T02:24:15.256Z,95103.91
2023-03-25T02:27:34.133Z,95106.50
2023-03-25T02:30:45.822Z,95104.48
2023-03-25T02:34:15.668Z,95100.10
2023-03-25T02:37:20.511Z,95094.29
2023-03-25T02:40:32.214Z,95088.50
2023-03-25T02:43:36.506Z,95076.61
2023-03-25T02:46:33.102Z,95069.09
2023-03-25T02:49:31.089Z,95066.14
2023-03-25T02:52:38.280Z,95065.71
2023-03-25T02:55:33.690Z,95061.08
2023-03-25T02:58:30.083Z,95063.14
2023-03-25T03:02:35.460Z,95062.70
2023-03-25T03:05:23.592Z,95066.40
2023-03-25T03:08:03.970Z,95065.48
2023-03-25T03:11:04.306Z,95062.45
2023-03-25T03:13:48.537Z,95057.21
2023-03-25T03:16:37.470Z,95053.45
2023-03-25T03:19:24.492Z,95054.27
2023-03-25T03:22:09.155Z,95057.38
2023-03-25T03:24:42.250Z,95057.69
2023-03-25T03:27:25.235Z,95060.66
2023-03-25T03:30:00.589Z,95062.23
2023-03-25T03:32:43.715Z,95054.16
2023-03-25T03:35:28.957Z,95050.58
2023-03-25T03:38:02.470Z,95049.13
2023-03-25T03:40:34.400Z,95048.01
2023-03-25T03:43:31.839Z,95043.81
2023-03-25T03:46:38.828Z,95043.17
2023-03-25T03:49:13.838Z,95040.20
2023-03-25T03:51:58.855Z,95039.29
2023-03-25T03:54:46.247Z,95033.81
2023-03-25T03:57:28.163Z,95031.55
2023-03-25T04:00:06.799Z,95035.37
2023-03-25T04:02:58.831Z,95035.86
2023-03-25T04:05:31.086Z,95036.76
2023-03-25T04:08:11.937Z,95033.77
2023-03-25T04:10:53.018Z,95030.07
2023-03-25T04:13:24.216Z,95029.62
2023-03-25T04:15:53.191Z,95032.80
2023-03-25T04:18:23.509Z,95038.27
2023-03-25T04:20:56.870Z,95038.16
2023-03-25T04:23:26.570Z,95044.30
2023-03-25T04:25:54.871Z,95044.92
2023-03-25T04:28:31.936Z,95043.05
2023-03-25T04:31:08.027Z,95046.52
2023-03-25T04:33:36.442Z,95054.42
2023-03-25T04:36:07.950Z,95054.05
2023-03-25T04:38:37.954Z,95043.98
2023-03-25T04:41:09.415Z,95036.48
2023-03-25T04:43:40.320Z,95037.63
2023-03-25T04:46:13.727Z,95038.07
2023-03-25T04:48:45.265Z,95028.05
2023-03-25T04:51:16.105Z,95016.02
2023-03-25T04:53:46.701Z,95014.65
2023-03-25T04:56:19.403Z,95021.35
2023-03-25T04:58:48.597Z,95024.90
2023-03-25T05:01:23.370Z,95029.02
2023-03-25T05:03:52.225Z,95020.29
2023-03-25T05:06:29.269Z,95025.02
2023-03-25T05:08:57.874Z,95033.34
2023-03-25T05:11:26.312Z,95035.92
2023-03-25T05:13:55.645Z,95038.90
2023-03-25T05:16:23.909Z,95036.63
2023-03-25T05:19:51.809Z,95032.74
2023-03-25T05:23:37.797Z,95024.53
2023-03-25T05:26:15.765Z,95027.14
2023-03-25T05:29:44.917Z,95023.36
2023-03-25T05:33:38.390Z,95022.22
2023-03-25T05:36:09.305Z,95019.23
2023-03-25T05:38:38.281Z,95022.97
2023-03-25T05:41:11.256Z,95024.70
2023-03-25T05:43:40.293Z,95019.55
2023-03-25T05:46:08.741Z,95013.00
2023-03-25T05:48:36.928Z,95011.60
2023-03-25T05:51:13.666Z,95016.82
2023-03-25T05:54:12.003Z,95017.67
2023-03-25T05:56:45.143Z,95020.66
2023-03-25T05:59:31.579Z,95020.70
2023-03-25T06:02:23.805Z,95019.21
2023-03-25T06:05:50.061Z,95021.98
2023-03-25T06:18:04.961Z,95023.98
2023-03-25T06:20:36.508Z,95023.23
2023-03-25T06:23:06.627Z,95023.66
2023-03-25T06:25:54.147Z,95029.10
2023-03-25T06:28:47.743Z,95031.86
2023-03-25T06:31:21.273Z,95035.40
2023-03-25T06:34:06.490Z,95042.08
2023-03-25T06:36:36.607Z,95046.59
2023-03-25T06:39:08.270Z,95053.99
2023-03-25T06:41:40.485Z,95059.13
2023-03-25T06:44:32.655Z,95060.67
2023-03-25T06:48:10.593Z,95059.16
2023-03-25T06:51:06.144Z,95051.81
2023-03-25T06:55:03.317Z,95050.00
2023-03-25T07:04:04.532Z,95058.25
2023-03-25T07:06:33.140Z,95059.10
2023-03-25T07:09:02.122Z,95060.99
2023-03-25T07:11:45.340Z,95062.77
2023-03-25T07:15:45.497Z,95060.76
2023-03-25T07:26:37.236Z,95070.27
2023-03-25T07:29:32.204Z,95067.15
2023-03-25T07:32:00.431Z,95059.13
2023-03-25T07:34:30.040Z,95056.96
2023-03-25T07:37:04.992Z,95054.66
2023-03-25T07:39:33.501Z,95052.73
2023-03-25T07:42:02.733Z,95053.50
2023-03-25T07:44:56.195Z,95056.41
2023-03-25T07:47:26.378Z,95055.58
2023-03-25T07:49:54.487Z,95050.20
2023-03-25T07:52:22.919Z,95044.08
2023-03-25T07:54:51.035Z,95044.11
2023-03-25T07:57:19.944Z,95045.83
2023-03-25T07:59:48.087Z,95046.27
2023-03-25T08:02:21.707Z,95047.52
2023-03-25T08:04:49.974Z,95047.71
2023-03-25T08:07:18.486Z,95054.49
2023-03-25T08:09:46.956Z,95055.70
2023-03-25T08:12:15.958Z,95050.65
2023-03-25T08:14:47.660Z,95049.66
2023-03-25T08:17:17.338Z,95055.46
2023-03-25T08:19:46.272Z,95055.27
2023-03-25T08:22:14.589Z,95055.84
2023-03-25T08:24:43.100Z,95057.42
2023-03-25T08:27:16.316Z,95063.96
2023-03-25T08:29:54.480Z,95060.39
2023-03-25T08:32:26.459Z,95054.05
2023-03-25T08:34:58.120Z,95056.83
2023-03-25T08:37:27.644Z,95057.36
2023-03-25T08:39:56.130Z,95066.15
2023-03-25T08:42:24.327Z,95074.98
2023-03-25T08:44:52.289Z,95077.92
2023-03-25T08:47:20.264Z,95072.53
2023-03-25T08:49:54.817Z,95067.72
2023-03-25T08:52:23.518Z,95061.77
2023-03-25T08:54:52.712Z,95059.68
2023-03-25T08:58:01.843Z,95053.10
2023-03-25T09:01:34.304Z,95061.02
2023-03-25T09:04:04.262Z,95069.48
2023-03-25T09:07:44.925Z,95074.16
2023-03-25T09:10:59.072Z,95073.31
2023-03-25T09:14:31.638Z,95066.49
2023-03-25T09:17:21.342Z,95052.17
2023-03-25T09:21:14.774Z,95050.65
2023-03-25T09:25:22.888Z,95057.41
2023-03-25T09:28:23.225Z,95065.14
2023-03-25T09:31:34.885Z,95067.46
2023-03-25T09:34:50.490Z,95063.70
2023-03-25T09:38:15.766Z,95061.21
2023-03-25T09:41:23.262Z,95059.18
2023-03-25T09:44:30.944Z,95057.52
2023-03-25T09:47:31.721Z,95049.01
2023-03-25T09:51:02.343Z,95035.22
2023-03-25T09:54:21.087Z,95029.55
2023-03-25T09:57:51.282Z,95032.95
2023-03-25T10:00:41.325Z,95029.89
2023-03-25T10:12:05.953Z,95042.42
2023-03-25T10:15:02.731Z,95041.52
2023-03-25T10:17:56.871Z,95045.84
2023-03-25T10:20:39.622Z,95037.73
2023-03-25T10:23:37.145Z,95035.30
2023-03-25T10:26:43.898Z,95033.36
2023-03-25T10:29:16.856Z,95031.11
2023-03-25T10:32:07.340Z,95034.09
2023-03-25T10:34:50.521Z,95031.95
2023-03-25T10:37:31.848Z,95033.83
2023-03-25T10:40:35.838Z,95036.23
2023-03-25T10:43:29.368Z,95030.36
2023-03-25T10:46:28.471Z,95027.02
2023-03-25T10:48:57.845Z,95027.11
2023-03-25T10:51:29.669Z,95025.65
2023-03-25T10:54:00.397Z,95021.31
2023-03-25T10:56:39.992Z,95019.53
2023-03-25T10:59:35.038Z,95018.29
2023-03-25T11:02:18.457Z,95013.20
2023-03-25T11:04:51.331Z,95011.38
2023-03-25T11:07:32.092Z,95011.08
2023-03-25T11:10:17.697Z,95011.88
2023-03-25T11:12:48.543Z,95011.59
2023-03-25T11:15:23.987Z,95006.02
2023-03-25T11:18:02.833Z,95000.98
2023-03-25T11:20:38.786Z,94998.91
2023-03-25T11:23:32.488Z,94995.70
2023-03-25T11:26:25.151Z,94989.67
2023-03-25T11:29:13.545Z,94990.10
2023-03-25T11:31:43.840Z,94990.54
2023-03-25T11:34:13.150Z,94988.09
2023-03-25T11:37:22.374Z,94983.78
2023-03-25T11:39:56.195Z,94984.09
2023-03-25T11:42:33.770Z,94984.09
2023-03-25T11:45:03.906Z,94983.91
2023-03-25T11:47:39.089Z,94982.90
2023-03-25T11:50:25.053Z,94985.63
2023-03-25T11:53:00.645Z,94984.69
2023-03-25T11:55:41.872Z,94983.91
2023-03-25T11:58:19.036Z,94987.11
2023-03-25T12:00:54.388Z,94987.47
2023-03-25T12:03:28.082Z,94984.64
2023-03-25T12:06:07.996Z,94986.18
2023-03-25T12:09:00.679Z,94982.08
2023-03-25T12:11:37.021Z,94978.17
2023-03-25T12:14:16.278Z,94981.80
2023-03-25T12:16:59.474Z,94983.77
2023-03-25T12:19:48.887Z,94983.55
2023-03-25T12:22:32.251Z,94984.38
2023-03-25T12:25:28.978Z,94982.66
2023-03-25T12:28:02.691Z,94983.92
2023-03-25T12:31:21.720Z,94975.23
2023-03-25T12:34:25.941Z,94978.64
2023-03-25T12:37:25.080Z,94981.43
2023-03-25T12:40:07.934Z,94982.93
2023-03-25T12:42:53.757Z,94986.96
2023-03-25T12:45:30.336Z,94993.94
2023-03-25T12:47:58.314Z,94993.48
2023-03-25T12:50:38.273Z,94994.31
2023-03-25T12:53:25.659Z,94998.45
2023-03-25T12:56:11.304Z,95003.07
2023-03-25T12:59:03.609Z,95005.54
2023-03-25T13:01:49.186Z,95001.41
2023-03-25T13:04:23.534Z,95004.59
2023-03-25T13:07:04.428Z,95008.84
2023-03-25T13:10:14.191Z,95004.80
2023-03-25T13:12:51.571Z,95008.49
2023-03-25T13:15:27.640Z,95011.40
2023-03-25T13:18:17.860Z,95011.50
2023-03-25T13:20:59.140Z,95016.96
2023-03-25T13:23:29.640Z,95017.94
2023-03-25T13:26:08.869Z,95022.84
2023-03-25T13:28:43.671Z,95022.56
2023-03-25T13:31:18.526Z,95022.23
2023-03-25T13:34:05.103Z,95022.09
2023-03-25T13:36:42.709Z,95022.48
2023-03-25T13:39:46.234Z,95018.10
2023-03-25T13:42:22.765Z,95015.96
2023-03-25T13:44:52.246Z,95014.90
2023-03-25T13:47:34.580Z,95008.25
2023-03-25T13:50:20.631Z,95007.09
2023-03-25T13:52:55.207Z,95014.55
2023-03-25T13:55:34.120Z,95015.21
2023-03-25T13:58:35.144Z,95007.31
2023-03-25T14:01:21.623Z,95003.42
2023-03-25T14:04:11.578Z,95007.36
2023-03-25T14:07:06.006Z,95006.84
2023-03-25T14:09:52.425Z,95007.34
2023-03-25T14:12:27.632Z,95009.23
2023-03-25T14:15:12.494Z,95013.23
2023-03-25T14:17:45.538Z,95015.06
2023-03-25T14:20:25.455Z,95015.64
2023-03-25T14:22:59.418Z,95021.45
2023-03-25T14:25:34.320Z,95019.33
2023-03-25T14:28:04.038Z,95022.83
2023-03-25T14:30:40.234Z,95025.34
2023-03-25T14:33:10.543Z,95020.32
2023-03-25T14:35:47.436Z,95023.23
2023-03-25T14:38:15.655Z,95021.27
2023-03-25T14:40:59.665Z,95018.97
2023-03-25T14:43:47.000Z,95016.70
2023-03-25T14:46:20.815Z,95016.95
2023-03-25T14:49:12.101Z,95015.00
2023-03-25T14:51:41.274Z,95011.61
2023-03-25T14:54:26.484Z,95014.65
2023-03-25T14:57:02.042Z,95009.45
2023-03-25T14:59:53.546Z,95011.72
2023-03-25T15:02:28.981Z,95012.44
2023-03-25T15:05:04.290Z,95018.42
2023-03-25T15:07:50.172Z,95019.66
2023-03-25T15:10:40.802Z,95023.94
2023-03-25T15:13:30.075Z,95025.69
2023-03-25T15:16:03.121Z,95025.90
2023-03-25T15:18:37.326Z,95028.05
2023-03-25T15:21:08.745Z,95027.05
2023-03-25T15:23:59.700Z,95025.84
2023-03-25T15:26:40.387Z,95021.50
2023-03-25T15:29:23.898Z,95022.54
2023-03-25T15:31:52.246Z,95022.40
2023-03-25T15:34:45.328Z,95025.59
2023-03-25T15:37:16.377Z,95025.66
2023-03-25T15:40:19.870Z,95022.80
2023-03-25T15:42:59.988Z,95020.55
2023-03-25T15:45:51.825Z,95015.28
2023-03-25T15:48:38.417Z,95014.05
2023-03-25T15:51:27.817Z,95015.48
2023-03-25T15:54:11.139Z,95016.39
2023-03-25T15:56:42.644Z,95019.65
2023-03-25T15:59:55.636Z,95017.69
2023-03-25T16:02:39.545Z,95021.18
2023-03-25T16:05:08.351Z,95029.35
2023-03-25T16:07:37.184Z,95034.08
2023-03-25T16:10:16.372Z,95034.88
2023-03-25T16:12:57.382Z,95031.27
2023-03-25T16:15:29.651Z,95036.80
2023-03-25T16:18:00.458Z,95036.86
2023-03-25T16:20:32.096Z,95035.89
2023-03-25T16:23:01.086Z,95038.00
2023-03-25T16:25:38.002Z,95038.31
2023-03-25T16:28:14.793Z,95039.55
2023-03-25T16:30:48.686Z,95037.08
2023-03-25T16:33:21.855Z,95034.66
2023-03-25T16:36:04.485Z,95040.86
2023-03-25T16:38:33.248Z,95046.42
2023-03-25T16:41:10.637Z,95043.86
2023-03-25T16:43:39.399Z,95043.46
2023-03-25T16:46:09.602Z,95045.23
2023-03-25T16:48:41.638Z,95044.15
2023-03-25T16:51:16.827Z,95048.70
2023-03-25T16:53:50.389Z,95048.44
2023-03-25T16:56:43.459Z,95048.44
2023-03-25T16:59:18.235Z,95049.92
2023-03-25T17:01:53.564Z,95044.97
2023-03-25T17:04:42.166Z,95048.48
2023-03-25T17:07:21.114Z,95052.55
2023-03-25T17:09:58.848Z,95060.73
2023-03-25T17:12:29.143Z,95061.52
2023-03-25T17:15:07.088Z,95061.85
2023-03-25T17:17:41.898Z,95064.73
2023-03-25T17:20:19.045Z,95069.05
2023-03-25T17:23:09.277Z,95073.45
2023-03-25T17:25:56.830Z,95075.41
2023-03-25T17:28:32.545Z,95076.20
2023-03-25T17:31:00.832Z,95075.40
2023-03-25T17:33:35.875Z,95076.58
2023-03-25T17:36:09.576Z,95081.11
2023-03-25T17:38:49.208Z,95082.39
2023-03-25T17:41:19.641Z,95081.66
2023-03-25T17:43:50.936Z,95086.13
2023-03-25T17:46:22.702Z,95085.77
2023-03-25T17:48:53.566Z,95094.31
2023-03-25T17:51:22.203Z,95091.89
2023-03-25T17:53:50.428Z,95087.39
2023-03-25T17:56:24.364Z,95090.59
2023-03-25T17:59:00.449Z,95096.77
2023-03-25T18:01:30.967Z,95095.25
2023-03-25T18:03:59.235Z,95090.71
2023-03-25T18:06:27.620Z,95097.86
2023-03-25T18:08:55.657Z,95100.73
2023-03-25T18:11:23.752Z,95100.30
2023-03-25T18:13:52.197Z,95103.60
2023-03-25T18:16:22.519Z,95106.02
2023-03-25T18:18:50.617Z,95106.67
2023-03-25T18:21:20.154Z,95108.14
2023-03-25T18:23:48.706Z,95106.80
2023-03-25T18:26:18.955Z,95110.89
2023-03-25T18:28:48.571Z,95110.14
2023-03-25T18:31:17.807Z,95109.58
2023-03-25T18:33:53.346Z,95111.89
2023-03-25T18:36:22.552Z,95109.59
2023-03-25T18:38:50.622Z,95110.34
2023-03-25T18:41:18.762Z,95109.15
2023-03-25T18:43:46.763Z,95104.30
2023-03-25T18:46:15.791Z,95104.73
2023-03-25T18:48:43.955Z,95106.59
2023-03-25T18:51:13.681Z,95107.27
2023-03-25T18:53:41.853Z,95101.13
2023-03-25T18:56:10.104Z,95101.13
2023-03-25T18:58:38.278Z,95102.30
2023-03-25T19:01:07.782Z,95105.69
2023-03-25T19:03:41.909Z,95111.33
2023-03-25T19:06:13.508Z,95117.40
2023-03-25T19:08:43.541Z,95120.42
2023-03-25T19:11:20.979Z,95120.05
2023-03-25T19:13:51.084Z,95116.75
2023-03-25T19:16:19.909Z,95117.48
2023-03-25T19:18:48.802Z,95123.30
2023-03-25T19:21:19.312Z,95123.66
2023-03-25T19:23:47.900Z,95120.09
2023-03-25T19:26:15.956Z,95121.19
2023-03-25T19:28:44.022Z,95124.34
2023-03-25T19:31:15.761Z,95132.48
2023-03-25T19:33:44.035Z,95135.15
2023-03-25T19:36:16.499Z,95135.07
2023-03-25T19:38:44.896Z,95137.30
2023-03-25T19:41:16.497Z,95135.48
2023-03-25T19:43:44.892Z,95136.21
2023-03-25T19:46:12.919Z,95140.41
2023-03-25T19:48:41.081Z,95145.96
2023-03-25T19:51:09.367Z,95148.20
2023-03-25T19:53:37.476Z,95149.00
2023-03-25T19:56:06.102Z,95147.08
2023-03-25T19:58:34.833Z,95142.45
2023-03-25T20:01:03.227Z,95138.40
2023-03-25T20:03:32.770Z,95139.58
2023-03-25T20:06:02.767Z,95136.85
2023-03-25T20:08:32.029Z,95135.11
2023-03-25T20:11:01.290Z,95135.92
2023-03-25T20:13:29.615Z,95137.56
2023-03-25T20:15:58.145Z,95139.46
2023-03-25T20:18:26.436Z,95135.95
2023-03-25T20:20:54.525Z,95130.23
2023-03-25T20:23:22.512Z,95130.08
2023-03-25T20:25:52.481Z,95133.40
2023-03-25T20:28:20.687Z,95132.30
2023-03-25T20:30:48.727Z,95129.83
2023-03-25T20:33:17.379Z,95130.86
2023-03-25T20:35:45.692Z,95134.86
2023-03-25T20:38:14.365Z,95132.77
2023-03-25T20:40:44.924Z,95130.16
2023-03-25T20:43:14.348Z,95131.02
2023-03-25T20:45:43.683Z,95127.19
2023-03-25T20:48:11.846Z,95124.60
2023-03-25T20:50:40.490Z,95127.84
2023-03-25T20:53:09.176Z,95129.22
2023-03-25T20:55:37.575Z,95127.32
2023-03-25T20:58:06.198Z,95122.91
2023-03-25T21:00:34.885Z,95115.37
2023-03-25T21:03:03.248Z,95114.83
2023-03-25T21:05:31.594Z,95116.85
2023-03-25T21:07:59.543Z,95115.54
2023-03-25T21:10:27.756Z,95116.89
2023-03-25T21:12:56.145Z,95119.40
2023-03-25T21:15:24.217Z,95117.05
2023-03-25T21:17:52.213Z,95114.88
2023-03-25T21:20:24.070Z,95109.64
2023-03-25T21:22:52.173Z,95111.23
2023-03-25T21:25:20.359Z,95112.98
2023-03-25T21:27:48.591Z,95110.70
2023-03-25T21:30:16.952Z,95112.26
2023-03-25T21:32:45.081Z,95113.25
2023-03-25T21:35:13.161Z,95114.25
2023-03-25T21:37:41.260Z,95114.85
2023-03-25T21:40:11.652Z,95119.65
2023-03-25T21:42:41.504Z,95117.04
2023-03-25T21:45:12.328Z,95116.98
2023-03-25T21:47:41.338Z,95117.48
2023-03-25T21:50:12.101Z,95115.14
2023-03-25T21:52:46.930Z,95116.98
2023-03-25T21:55:16.803Z,95115.76
2023-03-25T21:57:45.397Z,95116.31
2023-03-25T22:00:17.201Z,95123.79
2023-03-25T22:02:46.839Z,95126.23
2023-03-25T22:05:16.755Z,95124.92
2023-03-25T22:07:55.614Z,95123.71
2023-03-25T22:10:27.799Z,95123.39
2023-03-25T22:13:00.736Z,95131.20
2023-03-25T22:15:32.685Z,95134.41
2023-03-25T22:18:06.262Z,95138.44
2023-03-25T22:20:36.572Z,95145.99
2023-03-25T22:23:07.207Z,95150.80
2023-03-25T22:25:37.962Z,95155.67
2023-03-25T22:28:08.757Z,95159.04
2023-03-25T22:30:39.228Z,95159.64
2023-03-25T22:33:32.353Z,95162.11
2023-03-25T22:36:19.603Z,95169.92
2023-03-25T22:39:32.439Z,95166.48
2023-03-25T22:42:44.939Z,95172.52
2023-03-25T22:45:32.709Z,95177.50
2023-03-25T22:52:52.303Z,95173.84
2023-03-25T22:55:53.775Z,95173.75
2023-03-25T22:58:40.809Z,95170.30
2023-03-25T23:01:25.436Z,95169.77
2023-03-25T23:03:57.782Z,95173.75
2023-03-25T23:06:28.905Z,95170.67
2023-03-25T23:09:05.016Z,95169.77
2023-03-25T23:11:35.288Z,95168.13
2023-03-25T23:14:13.606Z,95169.40
2023-03-25T23:16:44.848Z,95170.14
2023-03-25T23:19:15.281Z,95166.53
2023-03-25T23:22:05.441Z,95168.52
2023-03-25T23:24:39.169Z,95158.95
2023-03-25T23:27:12.159Z,95150.98
2023-03-25T23:29:43.526Z,95147.34
2023-03-25T23:32:16.536Z,95148.45
2023-03-25T23:34:46.643Z,95144.19
2023-03-25T23:37:15.376Z,95139.44
2023-03-25T23:39:46.371Z,95140.02
2023-03-25T23:42:15.782Z,95138.09
2023-03-25T23:44:44.541Z,95139.23
2023-03-25T23:47:12.827Z,95139.64
2023-03-25T23:49:44.174Z,95142.92
2023-03-25T23:52:13.782Z,95137.23
2023-03-25T23:54:43.737Z,95139.48
2023-03-25T23:57:15.802Z,95139.16
2023-03-25T23:59:44.280Z,95148.65
